Latest Weather Observations for Ivanhoe Airport

IDN60801

Issued at 8:05 am EST Wednesday 24 September 2014 (issued every 30 minutes, with the page automatically refreshed every 10 minutes)

About weather observations | Map of weather stations | Latest weather observations for NSW | Other Formats
Station Details ID: 049000 Name: IVANHOE AERODROME AWS Lat: -32.88 Lon: 144.31 Height: 100.0 m
Data from the previous 72 hours. | See also: Recent months at Ivanhoe Airport
Date/Time
EST
Temp
°C
App
Temp
°C
Dew
Point
Rel
Hum
%
Delta-T
°C
Wind Press
QNH
hPa
Press
MSL
hPa
Rain
since 9 am
mm
Dir
 
Spd
km/h
Gust
km/h
Spd
kts
Gust
kts
24/08:00am 19.6 16.9 10.3 55 5.0 N 15 20 8 11 1016.5 1016.3 0.0
24/07:30am 19.7 15.2 8.4 48 5.9 NNE 22 28 12 15 1016.0 1015.9 0.0
24/07:00am 19.1 14.8 7.8 48 5.8 NNE 20 24 11 13 1016.0 1015.9 0.0
24/06:30am 18.4 14.5 7.2 48 5.7 NE 17 20 9 11 1016.1 1016.0 0.0
24/06:00am 17.1 13.8 6.3 49 5.3 ENE 13 17 7 9 1015.9 1015.8 0.0
24/05:30am 16.8 13.4 5.7 48 5.4 NE 13 15 7 8 1016.0 1015.9 0.0
24/05:00am 16.7 12.8 5.3 47 5.5 ENE 15 17 8 9 1016.1 1016.0 0.0
24/04:30am 16.5 13.0 5.5 48 5.3 ENE 13 15 7 8 1016.1 1016.0 0.0
24/04:00am 16.3 13.1 5.0 47 5.4 ENE 11 13 6 7 1016.2 1016.1 0.0
24/03:30am 16.6 13.1 5.3 47 5.4 ENE 13 13 7 7 1016.2 1016.1 0.0
24/03:00am 15.9 12.3 4.9 48 5.2 ENE 13 13 7 7 1016.5 1016.3 0.0
24/02:30am 16.7 13.5 5.0 46 5.6 ENE 11 13 6 7 1016.7 1016.5 0.0
24/02:00am 18.4 14.8 4.9 41 6.5 ENE 13 15 7 8 1017.1 1016.9 0.0
24/01:30am 19.2 15.3 5.3 40 6.8 NE 15 17 8 9 1017.4 1017.2 0.0
24/01:00am 19.4 15.4 5.1 39 7.0 NE 15 17 8 9 1017.9 1017.8 0.0
24/12:30am 19.9 16.0 5.2 38 7.2 NE 15 19 8 10 1018.1 1018.0 0.0
24/12:00am 20.7 16.7 5.1 36 7.7 NE 15 19 8 10 1018.4 1018.3 0.0
 
Date/Time
EST
Temp
°C
App
Temp
°C
Dew
Point
Rel
Hum
%
Delta-T
°C
Wind Press
QNH
hPa
Press
MSL
hPa
Rain
since 9 am
mm
Dir
 
Spd
km/h
Gust
km/h
Spd
kts
Gust
kts
23/11:30pm 21.5 16.9 5.4 35 8.0 NE 19 26 10 14 1018.5 1018.4 0.0
23/11:00pm 22.4 18.1 5.4 33 8.5 NE 17 24 9 13 1018.8 1018.7 0.0
23/10:30pm 23.0 18.8 5.9 33 8.7 NE 17 24 9 13 1019.0 1018.9 0.0
23/10:00pm 23.0 18.7 5.4 32 8.8 NNE 17 20 9 11 1019.4 1019.3 0.0
23/09:30pm 23.3 19.0 5.2 31 9.1 NNE 17 22 9 12 1019.5 1019.4 0.0
23/09:00pm 23.2 19.2 4.7 30 9.2 NNE 15 20 8 11 1019.5 1019.4 0.0
23/08:30pm 23.3 19.6 4.3 29 9.4 NE 13 17 7 9 1019.5 1019.4 0.0
23/08:00pm 23.5 20.1 4.0 28 9.6 NE 11 13 6 7 1019.4 1019.3 0.0
23/07:30pm 23.7 20.7 4.1 28 9.7 NE 9 11 5 6 1019.4 1019.3 0.0
23/07:00pm 24.1 20.7 4.0 27 9.9 NE 11 15 6 8 1019.2 1019.1 0.0
23/06:30pm 24.5 20.3 3.8 26 10.2 NNE 15 22 8 12 1019.1 1019.0 0.0
23/06:00pm 25.2 19.9 3.2 24 10.8 NE 20 28 11 15 1018.9 1018.8 0.0
23/05:30pm 25.6 19.7 4.1 25 10.8 NNE 24 32 13 17 1018.9 1018.8 0.0
23/05:00pm 26.3 21.2 4.1 24 11.1 NE 20 30 11 16 1018.9 1018.8 0.0
23/04:30pm 26.7 20.9 4.5 24 11.3 NE 24 32 13 17 1019.2 1019.1 0.0
23/04:00pm 25.9 21.1 4.4 25 10.8 N 19 26 10 14 1019.4 1019.3 0.0
23/03:30pm 26.5 21.1 4.3 24 11.2 NE 22 28 12 15 1019.6 1019.5 0.0
23/03:00pm 27.8 22.0 4.2 22 12.0 N 24 37 13 20 1019.9 1019.8 0.0
23/02:30pm 26.8 20.2 4.0 23 11.5 NE 28 35 15 19 1020.3 1020.2 0.0
23/02:00pm 27.2 20.2 4.3 23 11.6 N 30 39 16 21 1020.7 1020.6 0.0
23/01:30pm 26.8 21.9 5.1 25 11.1 NNE 20 26 11 14 1021.4 1021.3 0.0
23/01:00pm 25.0 20.0 4.7 27 10.2 NNE 20 35 11 19 1021.9 1021.8 0.0
23/12:30pm 25.9 21.7 5.5 27 10.5 N 17 30 9 16 1022.5 1022.4 0.0
23/12:00pm 26.4 21.8 5.4 26 10.8 NNE 19 26 10 14 1023.4 1023.3 0.0
23/11:30am 25.5 20.0 5.7 28 10.2 NNE 24 37 13 20 1023.9 1023.8 0.0
23/11:00am 25.0 19.8 5.7 29 9.9 N 22 32 12 17 1024.5 1024.4 0.0
23/10:30am 24.2 19.3 5.1 29 9.6 NNE 20 32 11 17 1024.9 1024.8 0.0
23/10:00am 23.4 17.9 5.8 32 8.9 NNE 24 32 13 17 1025.5 1025.4 0.0
23/09:30am 22.7 17.6 6.0 34 8.5 NNE 22 32 12 17 1025.8 1025.7 0.0
23/09:00am 21.5 16.2 6.6 38 7.6 NE 24 33 13 18 1025.8 1025.7 0.0
23/08:30am 20.8 16.2 6.7 40 7.2 NNE 20 26 11 14 1025.9 1025.8 0.0
23/08:00am 19.0 15.8 6.8 45 6.1 NNE 13 17 7 9 1025.8 1025.7 0.0
23/07:30am 16.4 13.1 6.5 52 4.9 NE 13 15 7 8 1025.5 1025.4 0.0
23/07:00am 13.6 10.5 5.7 59 3.7 ENE 11 13 6 7 1025.4 1025.3 0.0
23/06:30am 11.6 8.0 5.0 64 3.0 ENE 13 13 7 7 1025.1 1025.0 0.0
23/06:00am 11.1 7.4 4.3 63 3.0 ENE 13 15 7 8 1025.1 1025.0 0.0
23/05:30am 11.3 7.6 4.3 62 3.2 ENE 13 13 7 7 1025.2 1025.1 0.0
23/05:00am 12.0 8.0 4.7 61 3.3 ENE 15 17 8 9 1025.1 1025.0 0.0
23/04:30am 11.2 7.4 4.0 61 3.2 ENE 13 15 7 8 1024.9 1024.8 0.0
23/04:00am 12.3 9.0 4.5 59 3.5 NE 11 13 6 7 1025.0 1024.9 0.0
23/03:30am 12.3 8.9 4.0 57 3.8 ENE 11 11 6 6 1024.9 1024.8 0.0
23/03:00am 13.4 10.5 4.6 55 4.0 NE 9 11 5 6 1024.7 1024.6 0.0
23/02:30am 13.2 9.8 4.1 54 4.2 NE 11 13 6 7 1024.8 1024.7 0.0
23/02:00am 14.2 10.9 4.8 53 4.4 NE 11 13 6 7 1024.9 1024.8 0.0
23/01:30am 14.4 11.2 5.0 53 4.4 NE 11 13 6 7 1025.1 1025.0 0.0
23/01:00am 14.9 11.6 4.3 49 4.9 NNE 11 13 6 7 1025.3 1025.2 0.0
23/12:30am 16.9 13.3 4.9 45 5.7 NE 13 17 7 9 1025.5 1025.4 0.0
23/12:00am 17.8 13.1 5.1 43 6.1 NNE 19 24 10 13 1025.4 1025.3 0.0
 
Date/Time
EST
Temp
°C
App
Temp
°C
Dew
Point
Rel
Hum
%
Delta-T
°C
Wind Press
QNH
hPa
Press
MSL
hPa
Rain
since 9 am
mm
Dir
 
Spd
km/h
Gust
km/h
Spd
kts
Gust
kts
22/11:30pm 16.9 13.2 4.3 43 6.0 NNE 13 19 7 10 1025.4 1025.3 0.0
22/11:00pm 16.4 12.4 3.1 41 6.1 NNE 13 15 7 8 1025.5 1025.4 0.0
22/10:30pm 16.4 12.2 1.7 37 6.6 NE 13 13 7 7 1025.3 1025.2 0.0
22/10:00pm 17.0 12.8 1.4 35 6.9 NNE 13 13 7 7 1025.5 1025.4 0.0
22/09:30pm 17.3 13.3 0.5 32 7.4 NNE 11 11 6 6 1025.4 1025.3 0.0
22/09:00pm 18.9 14.5 0.5 29 8.1 NE 13 15 7 8 1025.2 1025.1 0.0
22/08:30pm 18.9 14.4 0.0 28 8.3 NE 13 15 7 8 1024.9 1024.8 0.0
22/08:00pm 18.7 14.9 -0.7 27 8.3 ENE 9 11 5 6 1024.7 1024.6 0.0
22/07:30pm 19.6 15.5 -0.4 26 8.8 E 11 13 6 7 1024.4 1024.3 0.0
22/07:00pm 20.7 16.9 -0.6 24 9.3 E 9 11 5 6 1024.1 1024.0 0.0
22/06:30pm 22.2 17.7 -0.5 22 10.2 E 13 15 7 8 1023.7 1023.6 0.0
22/06:00pm 24.1 19.5 -0.9 19 11.2 NE 13 20 7 11 1023.5 1023.4 0.0
22/05:30pm 25.3 19.5 -1.5 17 12.1 E 19 26 10 14 1023.1 1023.0 0.0
22/05:00pm 26.0 20.2 -0.1 18 12.1 ENE 20 32 11 17 1022.9 1022.8 0.0
22/04:30pm 25.9 20.9 -1.0 17 12.3 NE 15 22 8 12 1022.9 1022.8 0.0
22/04:00pm 26.3 19.5 -1.5 16 12.6 E 24 37 13 20 1023.0 1022.9 0.0
22/03:30pm 25.7 21.7 0.4 19 11.8 SSE 11 20 6 11 1023.2 1023.1 0.0
22/03:00pm 26.4 21.2 0.2 18 12.2 ENE 17 26 9 14 1023.4 1023.3 0.0
22/02:30pm 27.1 20.7 0.8 18 12.5 NE 24 32 13 17 1023.7 1023.6 0.0
22/02:00pm 26.1 20.9 0.0 18 12.1 ENE 17 32 9 17 1024.0 1023.9 0.0
22/01:30pm 26.0 20.7 -0.9 17 12.3 ENE 17 32 9 17 1024.5 1024.4 0.0
22/01:00pm 25.6 20.3 -0.5 18 11.9 NE 17 20 9 11 1025.0 1024.9 0.0
22/12:30pm 24.4 19.0 -1.4 18 11.6 NE 17 28 9 15 1025.6 1025.5 0.0
22/12:00pm 24.2 19.6 -0.9 19 11.3 NNE 13 20 7 11 1026.3 1026.3 0.0
22/11:30am 24.4 17.9 -2.2 17 11.7 NE 22 30 12 16 1027.0 1026.9 0.0
22/11:00am 23.8 18.6 -2.7 17 11.5 NE 15 35 8 19 1027.4 1027.3 0.0
22/10:30am 23.5 18.9 -1.4 19 11.1 NE 13 26 7 14 1027.8 1027.7 0.0
22/10:00am 23.2 18.1 0.9 23 10.3 NE 17 22 9 12 1027.9 1027.8 0.0
22/09:30am 21.7 16.8 1.9 27 9.2 NNE 17 20 9 11 1027.9 1027.8 0.0
22/09:00am 20.4 15.2 2.3 30 8.4 NNE 19 24 10 13 1027.8 1027.7 0.0
22/08:30am 18.6 13.8 2.4 34 7.5 NE 17 22 9 12 1027.9 1027.8 0.0
22/08:00am 15.9 10.8 0.9 36 6.5 ENE 17 20 9 11 1027.8 1027.7 0.0
22/07:30am 13.5 9.9 0.5 41 5.5 ENE 9 11 5 6 1027.6 1027.5 0.0
22/07:00am 10.6 6.9 0.1 48 4.2 E 9 9 5 5 1027.5 1027.4 0.0
22/06:30am 8.1 4.3 -1.1 52 3.5 SE 9 9 5 5 1027.3 1027.2 0.0
22/06:00am 7.6 4.1 -1.6 52 3.5 E 7 9 4 5 1026.9 1026.8 0.0
22/05:30am 8.5 5.0 -1.3 50 3.8 E 7 9 4 5 1026.7 1026.7 0.0
22/05:00am 9.1 4.9 -1.0 49 3.9 ESE 11 13 6 7 1026.3 1026.3 0.0
22/04:30am 8.9 4.2 -1.5 48 4.0 ESE 13 13 7 7 1026.1 1026.0 0.0
22/04:00am 8.7 4.4 -2.0 47 4.0 SE 11 13 6 7 1026.0 1025.9 0.0
22/03:30am 9.8 5.5 -1.3 46 4.3 SE 11 13 6 7 1025.9 1025.8 0.0
22/03:00am 11.1 6.9 -0.7 44 4.7 ESE 11 13 6 7 1025.8 1025.7 0.0
22/02:30am 11.2 6.6 -0.9 43 4.8 E 13 15 7 8 1025.9 1025.8 0.0
22/02:00am 11.6 7.0 -0.9 42 5.0 ESE 13 15 7 8 1026.1 1026.0 0.0
22/01:30am 11.3 7.1 -1.1 42 4.9 E 11 13 6 7 1026.5 1026.5 0.0
22/01:00am 11.6 7.4 -1.2 41 5.1 ESE 11 13 6 7 1026.9 1026.8 0.0
22/12:30am 12.5 7.9 -1.1 39 5.5 ESE 13 17 7 9 1026.5 1026.5 0.0
22/12:00am 12.7 8.1 -0.9 39 5.5 ESE 13 13 7 7 1026.7 1026.7 0.0
 
Date/Time
EST
Temp
°C
App
Temp
°C
Dew
Point
Rel
Hum
%
Delta-T
°C
Wind Press
QNH
hPa
Press
MSL
hPa
Rain
since 9 am
mm
Dir
 
Spd
km/h
Gust
km/h
Spd
kts
Gust
kts
21/11:30pm 12.8 8.6 -1.1 38 5.6 SE 11 13 6 7 1026.9 1026.8 0.0
21/11:00pm 12.7 8.1 -1.2 38 5.6 SE 13 15 7 8 1027.0 1026.9 0.0
21/10:30pm 13.8 9.2 -1.4 35 6.2 SSE 13 15 7 8 1027.0 1026.9 0.0
21/10:00pm 14.3 9.7 -1.3 34 6.3 SSE 13 15 7 8 1026.9 1026.8 0.0
21/09:30pm 14.5 10.2 -1.6 33 6.6 SE 11 13 6 7 1027.0 1026.9 0.0
21/09:00pm 15.1 10.8 -1.9 31 6.9 SE 11 11 6 6 1026.7 1026.7 0.0
21/08:30pm 16.1 11.8 -1.5 30 7.3 SE 11 15 6 8 1026.3 1026.3 0.0
21/08:00pm 16.8 12.9 -1.3 29 7.6 SSE 9 11 5 6 1026.0 1025.9 0.0
21/07:30pm 17.7 13.7 -2.0 26 8.2 SSE 9 11 5 6 1025.6 1025.5 0.0
21/07:00pm 18.8 14.8 -2.2 24 8.8 SSE 9 11 5 6 1025.4 1025.3 0.0
21/06:30pm 20.5 15.8 -1.9 22 9.6 SSE 13 15 7 8 1025.0 1024.9 0.0
21/06:00pm 22.3 17.1 -2.4 19 10.6 SSE 15 20 8 11 1024.8 1024.7 0.0
21/05:30pm 23.3 18.3 -0.9 20 10.8 SE 15 20 8 11 1024.5 1024.4 0.0
21/05:00pm 23.8 18.3 -1.9 18 11.3 SE 17 20 9 11 1024.5 1024.4 0.0
21/04:30pm 23.8 18.4 -1.2 19 11.2 S 17 24 9 13 1024.6 1024.5 0.0
21/04:00pm 23.6 19.3 -1.3 19 11.0 S 11 19 6 10 1024.7 1024.6 0.0
21/03:30pm 23.7 17.8 -2.0 18 11.3 SE 19 28 10 15 1024.8 1024.7 0.0
21/03:00pm 23.2 18.1 -1.7 19 10.9 SSE 15 26 8 14 1025.1 1025.0 0.0
21/02:30pm 22.8 18.3 -0.6 21 10.5 SSE 13 24 7 13 1025.4 1025.3 0.0
21/02:00pm 23.2 19.3 0.9 23 10.3 S 11 20 6 11 1025.9 1025.8 0.0
21/01:30pm 22.2 18.0 -1.1 21 10.3 S 11 24 6 13 1026.2 1026.1 0.0
21/01:00pm 21.7 18.2 1.4 26 9.3 S 9 17 5 9 1026.6 1026.6 0.0
21/12:30pm 21.0 17.6 1.8 28 8.9 SSW 9 22 5 12 1027.4 1027.3 0.0
21/12:00pm 19.9 16.2 2.3 31 8.1 ESE 11 17 6 9 1027.8 1027.7 0.0
21/11:30am 19.1 15.9 2.9 34 7.6 SSE 9 17 5 9 1028.3 1028.2 0.0
21/11:00am 18.5 15.0 3.6 37 7.0 SE 11 19 6 10 1028.6 1028.5 0.0
21/10:30am 17.6 13.8 3.9 40 6.5 S 13 19 7 10 1029.0 1028.9 0.0
21/10:00am 16.9 12.8 4.6 44 5.8 S 15 20 8 11 1029.3 1029.2 0.0
21/09:30am 15.5 11.2 5.1 50 4.9 S 17 22 9 12 1029.5 1029.4 0.0
21/09:00am 14.5 10.1 5.0 53 4.4 S 17 26 9 14 1029.6 1029.5 0.0
21/08:30am 13.1 9.5 5.0 58 3.8 S 13 19 7 10 1029.4 1029.3 0.0

Other Formats:

Comma delimited format used in spreadsheet applications
http://www.bom.gov.au/fwo/IDN60801/IDN60801.95697.axf

JavaScript Object Notation format (JSON) in row-major order
http://www.bom.gov.au/fwo/IDN60801/IDN60801.95697.json